sensor_id;sensor_type;location;lat;lon;timestamp;pressure;altitude;pressure_sealevel;temperature;humidity
45071;BME280;30836;48.906;9.140;2022-09-09T00:00:20;982.46;;;24.42;41.53
45071;BME280;30836;48.906;9.140;2022-09-09T00:02:33;982.50;;;24.44;41.49
45071;BME280;30836;48.906;9.140;2022-09-09T00:05:59;982.53;;;24.43;41.64
45071;BME280;30836;48.906;9.140;2022-09-09T00:07:10;982.51;;;24.43;41.74
45071;BME280;30836;48.906;9.140;2022-09-09T00:08:19;982.51;;;24.43;41.77
45071;BME280;30836;48.906;9.140;2022-09-09T00:09:23;982.51;;;24.43;41.90
45071;BME280;30836;48.906;9.140;2022-09-09T00:11:41;982.51;;;24.44;41.62
45071;BME280;30836;48.906;9.140;2022-09-09T00:12:51;982.51;;;24.45;41.84
45071;BME280;30836;48.906;9.140;2022-09-09T00:13:57;982.51;;;24.45;41.85
45071;BME280;30836;48.906;9.140;2022-09-09T00:17:28;982.44;;;24.52;41.71
45071;BME280;30836;48.906;9.140;2022-09-09T00:18:46;982.44;;;24.53;41.58
45071;BME280;30836;48.906;9.140;2022-09-09T00:19:58;982.42;;;24.51;41.95
45071;BME280;30836;48.906;9.140;2022-09-09T00:21:03;982.42;;;24.49;41.91
45071;BME280;30836;48.906;9.140;2022-09-09T00:23:14;982.46;;;24.47;41.60
45071;BME280;30836;48.906;9.140;2022-09-09T00:24:26;982.42;;;24.50;41.49
45071;BME280;30836;48.906;9.140;2022-09-09T00:26:47;982.36;;;24.57;41.42
45071;BME280;30836;48.906;9.140;2022-09-09T00:27:51;982.36;;;24.57;41.24
45071;BME280;30836;48.906;9.140;2022-09-09T00:30:24;982.36;;;24.54;41.11
45071;BME280;30836;48.906;9.140;2022-09-09T00:31:13;982.34;;;24.53;41.19
45071;BME280;30836;48.906;9.140;2022-09-09T00:32:18;982.36;;;24.51;41.42
45071;BME280;30836;48.906;9.140;2022-09-09T00:33:21;982.34;;;24.44;41.57
45071;BME280;30836;48.906;9.140;2022-09-09T00:34:24;982.36;;;24.33;41.81
45071;BME280;30836;48.906;9.140;2022-09-09T00:35:27;982.36;;;24.23;41.93
45071;BME280;30836;48.906;9.140;2022-09-09T00:36:29;982.34;;;24.13;42.05
45071;BME280;30836;48.906;9.140;2022-09-09T00:37:32;982.32;;;24.03;42.25
45071;BME280;30836;48.906;9.140;2022-09-09T00:38:35;982.32;;;23.95;42.27
45071;BME280;30836;48.906;9.140;2022-09-09T00:39:43;982.30;;;23.89;42.31
45071;BME280;30836;48.906;9.140;2022-09-09T00:48:42;982.34;;;23.58;42.63
45071;BME280;30836;48.906;9.140;2022-09-09T00:51:02;982.34;;;23.57;42.71
45071;BME280;30836;48.906;9.140;2022-09-09T00:57:32;982.36;;;23.49;42.92
45071;BME280;30836;48.906;9.140;2022-09-09T00:57:56;982.36;;;23.48;42.89
45071;BME280;30836;48.906;9.140;2022-09-09T01:01:11;982.40;;;23.39;42.81
45071;BME280;30836;48.906;9.140;2022-09-09T01:02:19;982.42;;;23.36;42.95
45071;BME280;30836;48.906;9.140;2022-09-09T01:04:33;982.42;;;23.37;43.02
45071;BME280;30836;48.906;9.140;2022-09-09T01:05:41;982.42;;;23.37;43.13
45071;BME280;30836;48.906;9.140;2022-09-09T01:06:48;982.40;;;23.38;43.22
45071;BME280;30836;48.906;9.140;2022-09-09T01:07:55;982.40;;;23.38;43.13
45071;BME280;30836;48.906;9.140;2022-09-09T01:10:07;982.36;;;23.45;42.52
45071;BME280;30836;48.906;9.140;2022-09-09T01:11:16;982.36;;;23.58;42.23
45071;BME280;30836;48.906;9.140;2022-09-09T01:12:26;982.34;;;23.72;42.10
45071;BME280;30836;48.906;9.140;2022-09-09T01:13:33;982.32;;;23.86;41.85
45071;BME280;30836;48.906;9.140;2022-09-09T01:15:35;982.32;;;24.08;41.17
45071;BME280;30836;48.906;9.140;2022-09-09T01:16:39;982.34;;;24.10;41.29
45071;BME280;30836;48.906;9.140;2022-09-09T01:18:51;982.34;;;24.16;41.03
45071;BME280;30836;48.906;9.140;2022-09-09T01:23:18;982.34;;;24.37;40.44
45071;BME280;30836;48.906;9.140;2022-09-09T01:24:22;982.34;;;24.42;40.20
45071;BME280;30836;48.906;9.140;2022-09-09T01:26:41;982.36;;;24.47;40.28
45071;BME280;30836;48.906;9.140;2022-09-09T01:27:43;982.40;;;24.48;40.38
45071;BME280;30836;48.906;9.140;2022-09-09T01:28:47;982.38;;;24.52;40.34
45071;BME280;30836;48.906;9.140;2022-09-09T01:29:49;982.42;;;24.56;40.18
45071;BME280;30836;48.906;9.140;2022-09-09T01:30:50;982.44;;;24.61;40.30
45071;BME280;30836;48.906;9.140;2022-09-09T01:33:00;982.50;;;24.70;40.08
45071;BME280;30836;48.906;9.140;2022-09-09T01:34:00;982.48;;;24.75;39.93
45071;BME280;30836;48.906;9.140;2022-09-09T01:35:01;982.48;;;24.79;39.85
45071;BME280;30836;48.906;9.140;2022-09-09T01:37:13;982.48;;;24.89;39.77
45071;BME280;30836;48.906;9.140;2022-09-09T01:38:13;982.48;;;24.94;39.65
45071;BME280;30836;48.906;9.140;2022-09-09T01:39:15;982.51;;;24.99;39.70
45071;BME280;30836;48.906;9.140;2022-09-09T01:39:25;982.51;;;25.03;39.69
45071;BME280;30836;48.906;9.140;2022-09-09T01:40:26;982.53;;;25.02;39.79
45071;BME280;30836;48.906;9.140;2022-09-09T01:41:27;982.53;;;24.96;40.10
45071;BME280;30836;48.906;9.140;2022-09-09T01:42:27;982.51;;;24.85;40.30
45071;BME280;30836;48.906;9.140;2022-09-09T01:43:28;982.55;;;24.73;40.69
45071;BME280;30836;48.906;9.140;2022-09-09T01:44:29;982.55;;;24.63;41.10
45071;BME280;30836;48.906;9.140;2022-09-09T01:45:30;982.57;;;24.55;41.17
45071;BME280;30836;48.906;9.140;2022-09-09T01:46:31;982.59;;;24.48;41.26
45071;BME280;30836;48.906;9.140;2022-09-09T01:47:31;982.55;;;24.41;41.40
45071;BME280;30836;48.906;9.140;2022-09-09T01:48:32;982.55;;;24.35;41.50
45071;BME280;30836;48.906;9.140;2022-09-09T01:49:33;982.53;;;24.31;41.73
45071;BME280;30836;48.906;9.140;2022-09-09T01:50:34;982.57;;;24.27;41.87
45071;BME280;30836;48.906;9.140;2022-09-09T01:51:35;982.55;;;24.23;41.89
45071;BME280;30836;48.906;9.140;2022-09-09T01:52:37;982.55;;;24.21;41.86
45071;BME280;30836;48.906;9.140;2022-09-09T01:53:38;982.57;;;24.18;41.97
45071;BME280;30836;48.906;9.140;2022-09-09T01:54:41;982.53;;;24.16;41.91
45071;BME280;30836;48.906;9.140;2022-09-09T01:55:43;982.53;;;24.14;41.92
45071;BME280;30836;48.906;9.140;2022-09-09T02:00:24;982.53;;;23.98;42.13
45071;BME280;30836;48.906;9.140;2022-09-09T02:02:36;982.53;;;23.92;42.05
45071;BME280;30836;48.906;9.140;2022-09-09T02:03:39;982.48;;;23.83;42.37
45071;BME280;30836;48.906;9.140;2022-09-09T02:07:01;982.48;;;23.69;42.33
45071;BME280;30836;48.906;9.140;2022-09-09T02:09:12;982.44;;;23.71;42.49
45071;BME280;30836;48.906;9.140;2022-09-09T02:11:23;982.38;;;23.73;42.47
45071;BME280;30836;48.906;9.140;2022-09-09T02:12:25;982.38;;;23.74;42.48
45071;BME280;30836;48.906;9.140;2022-09-09T02:13:29;982.40;;;23.76;42.49
45071;BME280;30836;48.906;9.140;2022-09-09T02:14:36;982.40;;;23.80;42.27
45071;BME280;30836;48.906;9.140;2022-09-09T02:16:48;982.42;;;24.03;41.84
45071;BME280;30836;48.906;9.140;2022-09-09T02:17:52;982.44;;;24.16;41.72
45071;BME280;30836;48.906;9.140;2022-09-09T02:19:01;982.48;;;24.27;41.63
45071;BME280;30836;48.906;9.140;2022-09-09T02:20:09;982.44;;;24.36;41.61
45071;BME280;30836;48.906;9.140;2022-09-09T02:21:13;982.46;;;24.41;41.61
45071;BME280;30836;48.906;9.140;2022-09-09T02:22:16;982.46;;;24.43;41.38
45071;BME280;30836;48.906;9.140;2022-09-09T02:23:19;982.51;;;24.42;41.67
45071;BME280;30836;48.906;9.140;2022-09-09T02:24:21;982.53;;;24.41;41.70
45071;BME280;30836;48.906;9.140;2022-09-09T02:25:23;982.55;;;24.40;41.70
45071;BME280;30836;48.906;9.140;2022-09-09T02:26:26;982.53;;;24.40;41.57
45071;BME280;30836;48.906;9.140;2022-09-09T02:27:27;982.51;;;24.39;41.82
45071;BME280;30836;48.906;9.140;2022-09-09T02:28:28;982.50;;;24.39;41.83
45071;BME280;30836;48.906;9.140;2022-09-09T02:29:33;982.55;;;24.42;41.68
45071;BME280;30836;48.906;9.140;2022-09-09T02:30:36;982.59;;;24.47;41.64
45071;BME280;30836;48.906;9.140;2022-09-09T02:31:39;982.61;;;24.49;41.64
45071;BME280;30836;48.906;9.140;2022-09-09T02:32:44;982.61;;;24.51;41.60
45071;BME280;30836;48.906;9.140;2022-09-09T02:33:48;982.61;;;24.52;41.62
45071;BME280;30836;48.906;9.140;2022-09-09T02:34:55;982.59;;;24.53;41.51
45071;BME280;30836;48.906;9.140;2022-09-09T02:36:05;982.57;;;24.51;41.65
45071;BME280;30836;48.906;9.140;2022-09-09T02:37:08;982.55;;;24.49;41.58
45071;BME280;30836;48.906;9.140;2022-09-09T02:38:12;982.55;;;24.47;41.57
45071;BME280;30836;48.906;9.140;2022-09-09T02:39:15;982.51;;;24.44;41.52
45071;BME280;30836;48.906;9.140;2022-09-09T02:40:15;982.51;;;24.45;41.46
45071;BME280;30836;48.906;9.140;2022-09-09T02:41:34;982.51;;;24.47;41.52
45071;BME280;30836;48.906;9.140;2022-09-09T02:42:26;982.53;;;24.50;41.48
45071;BME280;30836;48.906;9.140;2022-09-09T02:43:30;982.55;;;24.53;41.41
45071;BME280;30836;48.906;9.140;2022-09-09T02:44:31;982.53;;;24.56;41.42
45071;BME280;30836;48.906;9.140;2022-09-09T02:45:42;982.53;;;24.58;41.42
45071;BME280;30836;48.906;9.140;2022-09-09T02:50:00;982.44;;;24.65;41.23
45071;BME280;30836;48.906;9.140;2022-09-09T02:51:08;982.40;;;24.67;41.05
45071;BME280;30836;48.906;9.140;2022-09-09T02:52:15;982.38;;;24.70;41.05
45071;BME280;30836;48.906;9.140;2022-09-09T02:53:21;982.38;;;24.73;41.01
45071;BME280;30836;48.906;9.140;2022-09-09T02:56:40;982.32;;;24.77;40.90
45071;BME280;30836;48.906;9.140;2022-09-09T02:57:46;982.30;;;24.78;41.05
45071;BME280;30836;48.906;9.140;2022-09-09T02:58:47;982.26;;;24.79;41.14
45071;BME280;30836;48.906;9.140;2022-09-09T02:59:49;982.24;;;24.79;40.98
45071;BME280;30836;48.906;9.140;2022-09-09T03:00:50;982.24;;;24.79;40.90
45071;BME280;30836;48.906;9.140;2022-09-09T03:01:51;982.22;;;24.80;40.75
45071;BME280;30836;48.906;9.140;2022-09-09T03:02:51;982.20;;;24.79;40.70
45071;BME280;30836;48.906;9.140;2022-09-09T03:03:52;982.20;;;24.79;40.77
45071;BME280;30836;48.906;9.140;2022-09-09T03:04:53;982.20;;;24.79;40.86
45071;BME280;30836;48.906;9.140;2022-09-09T03:05:53;982.20;;;24.79;40.90
45071;BME280;30836;48.906;9.140;2022-09-09T03:06:53;982.22;;;24.78;41.00
45071;BME280;30836;48.906;9.140;2022-09-09T03:07:54;982.22;;;24.77;40.90
45071;BME280;30836;48.906;9.140;2022-09-09T03:08:54;982.22;;;24.75;40.81
45071;BME280;30836;48.906;9.140;2022-09-09T03:09:55;982.20;;;24.73;40.88
45071;BME280;30836;48.906;9.140;2022-09-09T03:10:57;982.14;;;24.72;40.94
45071;BME280;30836;48.906;9.140;2022-09-09T03:11:58;982.12;;;24.71;41.05
45071;BME280;30836;48.906;9.140;2022-09-09T03:12:59;982.14;;;24.70;40.99
45071;BME280;30836;48.906;9.140;2022-09-09T03:13:59;982.12;;;24.70;40.97
45071;BME280;30836;48.906;9.140;2022-09-09T03:15:00;982.12;;;24.69;40.83
45071;BME280;30836;48.906;9.140;2022-09-09T03:16:00;982.12;;;24.68;40.81
45071;BME280;30836;48.906;9.140;2022-09-09T03:17:01;982.12;;;24.67;40.84
45071;BME280;30836;48.906;9.140;2022-09-09T03:18:01;982.12;;;24.66;40.74
45071;BME280;30836;48.906;9.140;2022-09-09T03:19:02;982.02;;;24.64;40.94
45071;BME280;30836;48.906;9.140;2022-09-09T03:20:03;982.00;;;24.62;40.96
45071;BME280;30836;48.906;9.140;2022-09-09T03:21:04;982.00;;;24.61;40.90
45071;BME280;30836;48.906;9.140;2022-09-09T03:22:04;982.00;;;24.61;41.09
45071;BME280;30836;48.906;9.140;2022-09-09T03:23:05;982.12;;;24.60;41.25
45071;BME280;30836;48.906;9.140;2022-09-09T03:24:05;982.12;;;24.54;41.11
45071;BME280;30836;48.906;9.140;2022-09-09T03:25:06;982.16;;;24.42;41.25
45071;BME280;30836;48.906;9.140;2022-09-09T03:26:07;982.18;;;24.29;41.33
45071;BME280;30836;48.906;9.140;2022-09-09T03:27:08;982.20;;;24.23;41.23
45071;BME280;30836;48.906;9.140;2022-09-09T03:28:08;982.20;;;24.20;41.26
45071;BME280;30836;48.906;9.140;2022-09-09T03:29:09;982.22;;;24.18;41.37
45071;BME280;30836;48.906;9.140;2022-09-09T03:30:09;982.18;;;24.17;41.42
45071;BME280;30836;48.906;9.140;2022-09-09T03:31:10;982.22;;;24.18;41.26
45071;BME280;30836;48.906;9.140;2022-09-09T03:32:11;982.20;;;24.18;41.44
45071;BME280;30836;48.906;9.140;2022-09-09T03:33:11;982.20;;;24.14;41.59
45071;BME280;30836;48.906;9.140;2022-09-09T03:34:12;982.24;;;24.10;41.70
45071;BME280;30836;48.906;9.140;2022-09-09T03:35:12;982.28;;;24.08;41.60
45071;BME280;30836;48.906;9.140;2022-09-09T03:36:13;982.30;;;24.07;41.61
45071;BME280;30836;48.906;9.140;2022-09-09T03:37:14;982.34;;;24.06;41.77
45071;BME280;30836;48.906;9.140;2022-09-09T03:38:14;982.36;;;24.06;41.71
45071;BME280;30836;48.906;9.140;2022-09-09T03:39:14;982.40;;;24.07;41.84
45071;BME280;30836;48.906;9.140;2022-09-09T03:40:15;982.38;;;24.08;42.02
45071;BME280;30836;48.906;9.140;2022-09-09T03:41:15;982.38;;;24.09;42.02
45071;BME280;30836;48.906;9.140;2022-09-09T03:42:16;982.38;;;24.09;42.28
45071;BME280;30836;48.906;9.140;2022-09-09T03:43:16;982.38;;;24.08;42.43
45071;BME280;30836;48.906;9.140;2022-09-09T03:44:17;982.38;;;24.09;42.37
45071;BME280;30836;48.906;9.140;2022-09-09T03:45:17;982.38;;;24.10;42.28
45071;BME280;30836;48.906;9.140;2022-09-09T03:46:18;982.38;;;24.11;42.21
45071;BME280;30836;48.906;9.140;2022-09-09T03:47:20;982.40;;;24.13;42.16
45071;BME280;30836;48.906;9.140;2022-09-09T03:48:21;982.42;;;24.16;42.06
45071;BME280;30836;48.906;9.140;2022-09-09T03:49:21;982.42;;;24.18;41.95
45071;BME280;30836;48.906;9.140;2022-09-09T03:50:22;982.42;;;24.20;41.78
45071;BME280;30836;48.906;9.140;2022-09-09T03:51:22;982.42;;;24.21;41.71
45071;BME280;30836;48.906;9.140;2022-09-09T03:52:22;982.42;;;24.21;41.65
45071;BME280;30836;48.906;9.140;2022-09-09T03:53:23;982.46;;;24.20;41.82
45071;BME280;30836;48.906;9.140;2022-09-09T03:54:24;982.44;;;24.18;41.84
45071;BME280;30836;48.906;9.140;2022-09-09T03:55:25;982.46;;;24.18;41.83
45071;BME280;30836;48.906;9.140;2022-09-09T03:56:25;982.48;;;24.19;41.73
45071;BME280;30836;48.906;9.140;2022-09-09T03:57:26;982.48;;;24.20;41.59
45071;BME280;30836;48.906;9.140;2022-09-09T03:58:26;982.46;;;24.22;41.51
45071;BME280;30836;48.906;9.140;2022-09-09T03:59:27;982.44;;;24.25;41.55
45071;BME280;30836;48.906;9.140;2022-09-09T04:00:28;982.44;;;24.26;41.52
45071;BME280;30836;48.906;9.140;2022-09-09T04:01:28;982.42;;;24.28;41.45
45071;BME280;30836;48.906;9.140;2022-09-09T04:02:29;982.38;;;24.29;41.34
45071;BME280;30836;48.906;9.140;2022-09-09T04:03:29;982.40;;;24.31;41.28
45071;BME280;30836;48.906;9.140;2022-09-09T04:04:31;982.40;;;24.33;41.29
45071;BME280;30836;48.906;9.140;2022-09-09T04:05:31;982.40;;;24.34;41.16
45071;BME280;30836;48.906;9.140;2022-09-09T04:06:31;982.38;;;24.36;41.04
45071;BME280;30836;48.906;9.140;2022-09-09T04:07:32;982.36;;;24.37;41.01
45071;BME280;30836;48.906;9.140;2022-09-09T04:08:32;982.34;;;24.38;41.11
45071;BME280;30836;48.906;9.140;2022-09-09T04:09:33;982.34;;;24.40;41.07
45071;BME280;30836;48.906;9.140;2022-09-09T04:10:34;982.32;;;24.41;40.81
45071;BME280;30836;48.906;9.140;2022-09-09T04:11:35;982.34;;;24.42;40.65
45071;BME280;30836;48.906;9.140;2022-09-09T04:12:35;982.36;;;24.43;40.59
45071;BME280;30836;48.906;9.140;2022-09-09T04:13:36;982.42;;;24.44;40.57
45071;BME280;30836;48.906;9.140;2022-09-09T04:14:37;982.42;;;24.45;40.45
45071;BME280;30836;48.906;9.140;2022-09-09T04:15:38;982.44;;;24.45;40.41
45071;BME280;30836;48.906;9.140;2022-09-09T04:16:38;982.44;;;24.45;40.45
45071;BME280;30836;48.906;9.140;2022-09-09T04:17:39;982.44;;;24.45;40.47
45071;BME280;30836;48.906;9.140;2022-09-09T04:18:39;982.46;;;24.46;40.54
45071;BME280;30836;48.906;9.140;2022-09-09T04:19:40;982.46;;;24.46;40.59
45071;BME280;30836;48.906;9.140;2022-09-09T04:20:41;982.48;;;24.46;40.49
45071;BME280;30836;48.906;9.140;2022-09-09T04:21:41;982.50;;;24.45;40.43
45071;BME280;30836;48.906;9.140;2022-09-09T04:22:42;982.50;;;24.43;40.50
45071;BME280;30836;48.906;9.140;2022-09-09T04:23:42;982.51;;;24.41;40.52
45071;BME280;30836;48.906;9.140;2022-09-09T04:24:42;982.51;;;24.38;40.54
45071;BME280;30836;48.906;9.140;2022-09-09T04:25:44;982.50;;;24.36;40.63
45071;BME280;30836;48.906;9.140;2022-09-09T04:26:45;982.50;;;24.34;40.62
45071;BME280;30836;48.906;9.140;2022-09-09T04:27:45;982.50;;;24.33;40.64
45071;BME280;30836;48.906;9.140;2022-09-09T04:28:46;982.46;;;24.31;40.67
45071;BME280;30836;48.906;9.140;2022-09-09T04:29:46;982.44;;;24.29;40.78
45071;BME280;30836;48.906;9.140;2022-09-09T04:30:47;982.46;;;24.28;40.76
45071;BME280;30836;48.906;9.140;2022-09-09T04:31:48;982.46;;;24.28;40.80
45071;BME280;30836;48.906;9.140;2022-09-09T04:32:48;982.46;;;24.28;40.88
45071;BME280;30836;48.906;9.140;2022-09-09T04:33:49;982.44;;;24.27;40.96
45071;BME280;30836;48.906;9.140;2022-09-09T04:34:50;982.44;;;24.28;40.99
45071;BME280;30836;48.906;9.140;2022-09-09T04:35:50;982.46;;;24.30;41.02
45071;BME280;30836;48.906;9.140;2022-09-09T04:36:51;982.46;;;24.32;40.97
45071;BME280;30836;48.906;9.140;2022-09-09T04:37:51;982.50;;;24.35;40.92
45071;BME280;30836;48.906;9.140;2022-09-09T04:38:52;982.51;;;24.36;41.01
45071;BME280;30836;48.906;9.140;2022-09-09T04:39:52;982.51;;;24.36;40.98
45071;BME280;30836;48.906;9.140;2022-09-09T04:40:53;982.51;;;24.35;41.01
45071;BME280;30836;48.906;9.140;2022-09-09T04:41:53;982.55;;;24.34;40.96
45071;BME280;30836;48.906;9.140;2022-09-09T04:42:53;982.53;;;24.34;40.92
45071;BME280;30836;48.906;9.140;2022-09-09T04:43:54;982.53;;;24.34;40.90
45071;BME280;30836;48.906;9.140;2022-09-09T04:44:54;982.57;;;24.34;40.91
45071;BME280;30836;48.906;9.140;2022-09-09T04:45:55;982.57;;;24.35;40.77
45071;BME280;30836;48.906;9.140;2022-09-09T04:46:55;982.57;;;24.36;40.77
45071;BME280;30836;48.906;9.140;2022-09-09T04:47:56;982.57;;;24.36;40.88
45071;BME280;30836;48.906;9.140;2022-09-09T04:48:56;982.55;;;24.34;40.93
45071;BME280;30836;48.906;9.140;2022-09-09T04:49:57;982.57;;;24.34;41.05
45071;BME280;30836;48.906;9.140;2022-09-09T04:50:58;982.57;;;24.35;40.96
45071;BME280;30836;48.906;9.140;2022-09-09T04:52:03;982.55;;;24.38;40.87
45071;BME280;30836;48.906;9.140;2022-09-09T04:53:04;982.55;;;24.40;40.92
45071;BME280;30836;48.906;9.140;2022-09-09T04:54:05;982.55;;;24.42;40.90
45071;BME280;30836;48.906;9.140;2022-09-09T04:55:05;982.57;;;24.43;40.81
45071;BME280;30836;48.906;9.140;2022-09-09T04:56:10;982.55;;;24.40;41.04
45071;BME280;30836;48.906;9.140;2022-09-09T04:57:12;982.59;;;24.34;41.21
45071;BME280;30836;48.906;9.140;2022-09-09T04:58:12;982.57;;;24.31;41.28
45071;BME280;30836;48.906;9.140;2022-09-09T04:59:13;982.65;;;24.30;41.28
45071;BME280;30836;48.906;9.140;2022-09-09T05:00:13;982.65;;;24.31;41.31
45071;BME280;30836;48.906;9.140;2022-09-09T05:01:16;982.63;;;24.31;41.41
45071;BME280;30836;48.906;9.140;2022-09-09T05:02:17;982.63;;;24.30;41.41
45071;BME280;30836;48.906;9.140;2022-09-09T05:03:18;982.67;;;24.30;41.34
45071;BME280;30836;48.906;9.140;2022-09-09T05:04:18;982.69;;;24.31;41.35
45071;BME280;30836;48.906;9.140;2022-09-09T05:05:19;982.69;;;24.33;41.28
45071;BME280;30836;48.906;9.140;2022-09-09T05:06:20;982.73;;;24.34;41.26
45071;BME280;30836;48.906;9.140;2022-09-09T05:07:21;982.73;;;24.34;41.40
45071;BME280;30836;48.906;9.140;2022-09-09T05:08:22;982.73;;;24.35;41.29
45071;BME280;30836;48.906;9.140;2022-09-09T05:09:22;982.73;;;24.35;41.21
45071;BME280;30836;48.906;9.140;2022-09-09T05:10:23;982.75;;;24.35;41.37
45071;BME280;30836;48.906;9.140;2022-09-09T05:11:24;982.73;;;24.36;41.36
45071;BME280;30836;48.906;9.140;2022-09-09T05:12:26;982.75;;;24.37;41.36
45071;BME280;30836;48.906;9.140;2022-09-09T05:13:27;982.75;;;24.38;41.28
45071;BME280;30836;48.906;9.140;2022-09-09T05:14:27;982.77;;;24.41;41.36
45071;BME280;30836;48.906;9.140;2022-09-09T05:15:28;982.83;;;24.43;41.21
45071;BME280;30836;48.906;9.140;2022-09-09T05:16:28;982.79;;;24.46;41.12
45071;BME280;30836;48.906;9.140;2022-09-09T05:17:29;982.79;;;24.49;40.97
45071;BME280;30836;48.906;9.140;2022-09-09T05:18:29;982.79;;;24.50;40.92
45071;BME280;30836;48.906;9.140;2022-09-09T05:19:30;982.79;;;24.51;40.65
45071;BME280;30836;48.906;9.140;2022-09-09T05:20:30;982.79;;;24.50;40.80
45071;BME280;30836;48.906;9.140;2022-09-09T05:21:30;982.77;;;24.47;40.82
45071;BME280;30836;48.906;9.140;2022-09-09T05:22:31;982.79;;;24.43;41.00
45071;BME280;30836;48.906;9.140;2022-09-09T05:23:32;982.79;;;24.41;41.03
45071;BME280;30836;48.906;9.140;2022-09-09T05:24:33;982.79;;;24.39;41.13
45071;BME280;30836;48.906;9.140;2022-09-09T05:25:33;982.79;;;24.38;41.09
45071;BME280;30836;48.906;9.140;2022-09-09T05:26:34;982.81;;;24.37;41.13
45071;BME280;30836;48.906;9.140;2022-09-09T05:27:34;982.81;;;24.32;41.43
45071;BME280;30836;48.906;9.140;2022-09-09T05:28:35;982.81;;;24.22;41.67
45071;BME280;30836;48.906;9.140;2022-09-09T05:29:35;982.83;;;24.08;42.41
45071;BME280;30836;48.906;9.140;2022-09-09T05:30:35;982.83;;;23.92;42.62
45071;BME280;30836;48.906;9.140;2022-09-09T05:31:36;982.85;;;23.81;42.64
45071;BME280;30836;48.906;9.140;2022-09-09T05:32:36;982.83;;;23.73;42.59
45071;BME280;30836;48.906;9.140;2022-09-09T05:33:37;982.85;;;23.66;42.71
45071;BME280;30836;48.906;9.140;2022-09-09T05:34:38;982.87;;;23.58;42.72
45071;BME280;30836;48.906;9.140;2022-09-09T05:35:38;982.85;;;23.49;42.87
45071;BME280;30836;48.906;9.140;2022-09-09T05:36:39;982.85;;;23.42;43.15
45071;BME280;30836;48.906;9.140;2022-09-09T05:37:39;982.85;;;23.39;43.13
45071;BME280;30836;48.906;9.140;2022-09-09T05:38:40;982.85;;;23.35;43.45
45071;BME280;30836;48.906;9.140;2022-09-09T05:39:41;982.85;;;23.32;43.21
45071;BME280;30836;48.906;9.140;2022-09-09T05:40:46;982.87;;;23.30;43.48
45071;BME280;30836;48.906;9.140;2022-09-09T05:41:47;982.89;;;23.27;43.34
45071;BME280;30836;48.906;9.140;2022-09-09T05:42:47;982.89;;;23.25;43.38
45071;BME280;30836;48.906;9.140;2022-09-09T05:43:48;982.87;;;23.22;43.51
45071;BME280;30836;48.906;9.140;2022-09-09T05:44:48;982.85;;;23.20;43.44
45071;BME280;30836;48.906;9.140;2022-09-09T05:45:58;982.87;;;23.18;43.55
45071;BME280;30836;48.906;9.140;2022-09-09T05:46:59;982.89;;;23.17;43.65
45071;BME280;30836;48.906;9.140;2022-09-09T05:48:00;982.89;;;23.16;43.76
45071;BME280;30836;48.906;9.140;2022-09-09T05:49:01;982.89;;;23.15;43.78
45071;BME280;30836;48.906;9.140;2022-09-09T05:50:03;982.89;;;23.15;43.82
45071;BME280;30836;48.906;9.140;2022-09-09T05:51:04;982.89;;;23.17;43.85
45071;BME280;30836;48.906;9.140;2022-09-09T05:52:06;982.89;;;23.20;43.81
45071;BME280;30836;48.906;9.140;2022-09-09T05:53:07;982.91;;;23.23;43.78
45071;BME280;30836;48.906;9.140;2022-09-09T05:54:07;982.89;;;23.25;43.83
45071;BME280;30836;48.906;9.140;2022-09-09T05:55:08;982.89;;;23.28;43.67
45071;BME280;30836;48.906;9.140;2022-09-09T05:56:10;982.89;;;23.31;43.51
45071;BME280;30836;48.906;9.140;2022-09-09T05:57:12;982.95;;;23.33;43.38
45071;BME280;30836;48.906;9.140;2022-09-09T05:58:12;982.93;;;23.32;43.56
45071;BME280;30836;48.906;9.140;2022-09-09T05:59:13;982.93;;;23.29;43.69
45071;BME280;30836;48.906;9.140;2022-09-09T06:00:14;982.95;;;23.30;43.65
45071;BME280;30836;48.906;9.140;2022-09-09T06:01:16;982.97;;;23.31;43.70
45071;BME280;30836;48.906;9.140;2022-09-09T06:02:21;982.95;;;23.31;43.79
45071;BME280;30836;48.906;9.140;2022-09-09T06:03:21;982.97;;;23.32;43.70
45071;BME280;30836;48.906;9.140;2022-09-09T06:04:22;982.99;;;23.34;43.72
45071;BME280;30836;48.906;9.140;2022-09-09T06:05:22;983.01;;;23.36;43.69
45071;BME280;30836;48.906;9.140;2022-09-09T06:06:26;983.01;;;23.37;43.51
45071;BME280;30836;48.906;9.140;2022-09-09T06:07:30;983.01;;;23.39;43.54
45071;BME280;30836;48.906;9.140;2022-09-09T06:08:32;982.99;;;23.40;43.40
45071;BME280;30836;48.906;9.140;2022-09-09T06:09:36;982.99;;;23.41;43.54
45071;BME280;30836;48.906;9.140;2022-09-09T06:10:37;982.99;;;23.41;44.07
45071;BME280;30836;48.906;9.140;2022-09-09T06:11:38;982.99;;;23.42;44.04
45071;BME280;30836;48.906;9.140;2022-09-09T06:12:39;983.03;;;23.40;43.92
45071;BME280;30836;48.906;9.140;2022-09-09T06:13:40;983.01;;;23.33;43.86
45071;BME280;30836;48.906;9.140;2022-09-09T06:14:41;982.99;;;23.27;44.48
45071;BME280;30836;48.906;9.140;2022-09-09T06:15:49;983.01;;;23.26;44.31
45071;BME280;30836;48.906;9.140;2022-09-09T06:16:50;982.99;;;23.27;44.01
45071;BME280;30836;48.906;9.140;2022-09-09T06:17:54;982.99;;;23.25;43.80
45071;BME280;30836;48.906;9.140;2022-09-09T06:18:55;982.99;;;23.21;43.85
45071;BME280;30836;48.906;9.140;2022-09-09T06:19:06;982.93;;;23.18;43.82
45071;BME280;30836;48.906;9.140;2022-09-09T06:20:06;982.95;;;23.22;43.81
45071;BME280;30836;48.906;9.140;2022-09-09T06:22:16;982.95;;;23.36;43.84
45071;BME280;30836;48.906;9.140;2022-09-09T06:23:17;982.97;;;23.44;43.59
45071;BME280;30836;48.906;9.140;2022-09-09T06:24:17;982.99;;;23.48;43.34
45071;BME280;30836;48.906;9.140;2022-09-09T06:25:18;982.99;;;23.48;43.62
45071;BME280;30836;48.906;9.140;2022-09-09T06:26:22;982.99;;;23.45;44.14
45071;BME280;30836;48.906;9.140;2022-09-09T06:27:25;983.01;;;23.46;43.93
45071;BME280;30836;48.906;9.140;2022-09-09T06:28:27;983.03;;;23.51;43.62
45071;BME280;30836;48.906;9.140;2022-09-09T06:29:27;983.01;;;23.53;43.50
45071;BME280;30836;48.906;9.140;2022-09-09T06:30:28;983.01;;;23.50;43.49
45071;BME280;30836;48.906;9.140;2022-09-09T06:31:29;983.03;;;23.46;43.36